createdAt,value
2022-09-10T00:00:43.667Z,53.11
2022-09-10T00:03:11.647Z,53.34
2022-09-10T00:05:40.191Z,53.12
2022-09-10T00:08:09.397Z,53.27
2022-09-10T00:10:40.487Z,53.17
2022-09-10T00:13:09.380Z,53.36
2022-09-10T00:15:40.059Z,53.18
2022-09-10T00:18:08.980Z,53.31
2022-09-10T00:20:36.723Z,53.06
2022-09-10T00:23:04.440Z,53.37
2022-09-10T00:25:33.477Z,53.17
2022-09-10T00:28:01.239Z,52.96
2022-09-10T00:30:28.928Z,53.31
2022-09-10T00:32:56.635Z,53.44
2022-09-10T00:35:24.348Z,53.34
2022-09-10T00:37:52.052Z,53.33
2022-09-10T00:40:20.044Z,53.14
2022-09-10T00:42:49.087Z,53.03
2022-09-10T00:45:20.097Z,52.96
2022-09-10T00:47:47.840Z,53.13
2022-09-10T00:50:19.031Z,53.21
2022-09-10T00:52:47.545Z,53.07
2022-09-10T00:55:15.276Z,53.26
2022-09-10T00:57:43.004Z,53.33
2022-09-10T01:00:13.630Z,53.27
2022-09-10T01:02:41.329Z,53.42
2022-09-10T01:05:10.091Z,53.40
2022-09-10T01:07:37.820Z,53.15
2022-09-10T01:10:07.748Z,53.17
2022-09-10T01:12:47.778Z,53.25
2022-09-10T01:15:22.129Z,52.98
2022-09-10T01:17:58.934Z,53.21
2022-09-10T01:20:47.438Z,53.18
2022-09-10T01:23:53.672Z,53.24
2022-09-10T01:26:29.316Z,53.19
2022-09-10T01:29:01.238Z,53.22
2022-09-10T01:31:31.490Z,53.09
2022-09-10T01:34:02.455Z,53.20
2022-09-10T01:36:33.475Z,53.20
2022-09-10T01:39:01.256Z,52.88
2022-09-10T01:41:28.955Z,52.97
2022-09-10T01:43:58.136Z,53.12
2022-09-10T01:46:31.103Z,53.11
2022-09-10T01:49:16.058Z,53.12
2022-09-10T01:51:56.433Z,53.25
2022-09-10T01:54:33.593Z,52.89
2022-09-10T01:57:06.581Z,53.08
2022-09-10T01:59:38.914Z,53.28
2022-09-10T02:02:09.034Z,53.11
2022-09-10T02:04:36.552Z,53.17
2022-09-10T02:07:05.118Z,53.42
2022-09-10T02:09:32.922Z,53.25
2022-09-10T02:12:02.318Z,53.27
2022-09-10T02:14:29.993Z,53.24
2022-09-10T02:16:59.780Z,53.27
2022-09-10T02:19:27.594Z,53.08
2022-09-10T02:21:56.169Z,53.50
2022-09-10T02:24:23.892Z,53.47
2022-09-10T02:26:51.594Z,53.40
2022-09-10T02:29:19.455Z,53.33
2022-09-10T02:31:47.482Z,53.50
2022-09-10T02:34:16.895Z,53.29
2022-09-10T02:36:44.562Z,53.35
2022-09-10T02:39:12.226Z,53.41
2022-09-10T02:41:40.894Z,53.72
2022-09-10T02:44:08.799Z,53.79
2022-09-10T02:46:36.482Z,53.42
2022-09-10T02:49:04.159Z,53.39
2022-09-10T02:51:33.199Z,53.54
2022-09-10T02:54:01.469Z,53.51
2022-09-10T02:56:29.155Z,53.22
2022-09-10T02:58:56.823Z,53.26
2022-09-10T03:01:24.709Z,53.50
2022-09-10T03:03:54.400Z,53.57
2022-09-10T03:06:22.264Z,53.62
2022-09-10T03:08:51.282Z,53.57
2022-09-10T03:11:19.303Z,53.51
2022-09-10T03:13:47.987Z,53.45
2022-09-10T03:16:15.878Z,53.75
2022-09-10T03:18:43.742Z,53.48
2022-09-10T03:21:13.157Z,53.58
2022-09-10T03:23:40.949Z,53.48
2022-09-10T03:26:10.724Z,53.58
2022-09-10T03:28:38.736Z,53.56
2022-09-10T03:31:06.647Z,53.71
2022-09-10T03:33:34.423Z,53.71
2022-09-10T03:36:02.712Z,53.67
2022-09-10T03:38:30.560Z,53.78
2022-09-10T03:40:58.675Z,53.77
2022-09-10T03:43:27.695Z,54.07
2022-09-10T03:45:55.423Z,53.54
2022-09-10T03:48:23.147Z,53.88
2022-09-10T03:50:51.293Z,53.92
2022-09-10T03:53:19.618Z,53.97
2022-09-10T03:55:47.807Z,53.95
2022-09-10T03:58:15.644Z,53.90
2022-09-10T04:00:46.204Z,54.07
2022-09-10T04:03:14.370Z,53.91
2022-09-10T04:05:43.602Z,53.92
2022-09-10T04:08:11.380Z,53.68
2022-09-10T04:10:39.335Z,53.83
2022-09-10T04:13:07.163Z,53.80
2022-09-10T04:15:34.822Z,53.83
2022-09-10T04:18:03.987Z,54.02
2022-09-10T04:20:31.658Z,53.81
2022-09-10T04:22:59.354Z,54.03
2022-09-10T04:25:27.119Z,53.99
2022-09-10T04:27:54.848Z,53.94
2022-09-10T04:30:23.289Z,53.92
2022-09-10T04:32:52.404Z,53.95
2022-09-10T04:35:21.579Z,53.97
2022-09-10T04:37:49.303Z,53.92
2022-09-10T04:40:17.069Z,54.18
2022-09-10T04:42:44.769Z,53.97
2022-09-10T04:45:12.931Z,53.97
2022-09-10T04:47:40.800Z,54.05
2022-09-10T04:50:09.690Z,53.97
2022-09-10T04:52:38.860Z,54.00
2022-09-10T04:55:07.948Z,54.02
2022-09-10T04:57:36.084Z,53.93
2022-09-10T05:00:05.542Z,54.08
2022-09-10T05:02:33.319Z,54.06
2022-09-10T05:05:00.988Z,54.00
2022-09-10T05:07:28.662Z,54.09
2022-09-10T05:09:57.666Z,53.95
2022-09-10T05:12:25.421Z,54.23
2022-09-10T05:14:53.083Z,54.15
2022-09-10T05:17:20.813Z,54.22
2022-09-10T05:19:48.485Z,54.03
2022-09-10T05:22:16.273Z,53.95
2022-09-10T05:24:44.164Z,54.21
2022-09-10T05:27:13.231Z,54.12
2022-09-10T05:29:40.918Z,54.20
2022-09-10T05:32:09.459Z,54.04
2022-09-10T05:34:39.758Z,54.08
2022-09-10T05:37:08.777Z,54.09
2022-09-10T05:39:36.490Z,53.97
2022-09-10T05:42:04.374Z,54.30
2022-09-10T05:44:33.403Z,54.08
2022-09-10T05:47:01.362Z,54.05
2022-09-10T05:49:30.348Z,54.11
2022-09-10T05:51:58.114Z,54.13
2022-09-10T05:54:25.844Z,54.21
2022-09-10T05:56:54.144Z,54.06
2022-09-10T05:59:21.820Z,54.26
2022-09-10T06:01:51.448Z,54.16
2022-09-10T06:04:19.791Z,53.86
2022-09-10T06:06:47.860Z,53.55
2022-09-10T06:09:15.546Z,53.86
2022-09-10T06:11:43.342Z,53.74
2022-09-10T06:14:10.991Z,53.66
2022-09-10T06:16:38.742Z,53.58
2022-09-10T06:19:08.366Z,53.50
2022-09-10T06:21:36.088Z,53.81
2022-09-10T06:24:03.946Z,53.59
2022-09-10T06:26:31.678Z,53.86
2022-09-10T06:28:59.734Z,53.61
2022-09-10T06:31:27.692Z,53.65
2022-09-10T06:33:55.387Z,53.47
2022-09-10T06:36:24.447Z,53.47
2022-09-10T06:38:53.351Z,53.69
2022-09-10T06:41:21.052Z,53.48
2022-09-10T06:43:48.780Z,53.24
2022-09-10T06:46:50.763Z,53.11
2022-09-10T06:49:05.255Z,53.25
2022-09-10T06:51:34.346Z,53.04
2022-09-10T06:54:02.843Z,53.34
2022-09-10T06:56:30.763Z,53.18
2022-09-10T06:59:02.211Z,52.96
2022-09-10T07:01:30.611Z,53.04
2022-09-10T07:03:59.436Z,53.15
2022-09-10T07:06:27.544Z,53.18
2022-09-10T07:08:56.889Z,53.13
2022-09-10T07:11:25.006Z,53.27
2022-09-10T07:13:53.218Z,53.11
2022-09-10T07:16:20.971Z,53.21
2022-09-10T07:18:50.056Z,53.26
2022-09-10T07:21:17.863Z,53.22
2022-09-10T07:23:47.154Z,53.05
2022-09-10T07:26:16.909Z,53.26
2022-09-10T07:28:44.769Z,53.11
2022-09-10T07:31:16.688Z,53.01
2022-09-10T07:33:44.662Z,53.42
2022-09-10T07:36:12.615Z,53.66
2022-09-10T07:38:40.731Z,53.17
2022-09-10T07:41:10.142Z,53.05
2022-09-10T07:43:39.933Z,53.41
2022-09-10T07:46:07.904Z,53.09
2022-09-10T07:48:35.663Z,53.11
2022-09-10T07:51:04.316Z,53.23
2022-09-10T07:53:32.012Z,53.22
2022-09-10T07:56:01.794Z,53.17
2022-09-10T07:58:31.710Z,53.13
2022-09-10T08:01:01.078Z,53.16
2022-09-10T08:03:28.902Z,53.25
2022-09-10T08:05:56.643Z,53.34
2022-09-10T08:08:24.711Z,53.18
2022-09-10T08:10:53.643Z,53.24
2022-09-10T08:13:22.659Z,53.23
2022-09-10T08:15:51.721Z,53.38
2022-09-10T08:18:20.775Z,53.26
2022-09-10T08:20:55.046Z,53.35
2022-09-10T08:23:23.202Z,53.24
2022-09-10T08:25:52.231Z,53.22
2022-09-10T08:28:25.371Z,53.42
2022-09-10T08:30:58.161Z,53.13
2022-09-10T08:33:27.326Z,53.14
2022-09-10T08:35:57.193Z,53.33
2022-09-10T08:38:26.247Z,53.07
2022-09-10T08:40:54.436Z,53.28
2022-09-10T08:43:28.151Z,53.46
2022-09-10T08:45:55.890Z,53.03
2022-09-10T08:48:24.075Z,53.34
2022-09-10T08:50:54.643Z,53.07
2022-09-10T08:53:26.288Z,52.92
2022-09-10T08:55:57.411Z,53.29
2022-09-10T08:58:26.518Z,53.32
2022-09-10T09:00:54.926Z,53.23
2022-09-10T09:03:23.963Z,53.07
2022-09-10T09:05:55.590Z,53.37
2022-09-10T09:08:25.794Z,53.44
2022-09-10T09:10:55.329Z,53.16
2022-09-10T09:13:33.114Z,53.25
2022-09-10T09:16:19.475Z,52.92
2022-09-10T09:18:57.300Z,53.13
2022-09-10T09:21:28.770Z,53.34
2022-09-10T09:24:12.817Z,53.23
2022-09-10T09:26:41.414Z,53.09
2022-09-10T09:29:13.142Z,53.15
2022-09-10T09:31:42.620Z,53.09
2022-09-10T09:34:14.298Z,53.20
2022-09-10T09:36:46.178Z,53.29
2022-09-10T09:39:16.874Z,53.13
2022-09-10T09:41:49.909Z,53.28
2022-09-10T09:44:19.433Z,53.35
2022-09-10T09:46:47.142Z,53.42
2022-09-10T09:49:16.221Z,53.36
2022-09-10T09:51:45.763Z,53.44
2022-09-10T09:54:56.630Z,53.30
2022-09-10T09:57:05.904Z,53.67
2022-09-10T09:59:34.744Z,53.46
2022-09-10T10:02:06.494Z,53.50
2022-09-10T10:04:36.209Z,53.48
2022-09-10T10:07:08.035Z,53.57
2022-09-10T10:09:38.535Z,53.53
2022-09-10T10:12:06.557Z,53.42
2022-09-10T10:14:38.168Z,53.67
2022-09-10T10:17:26.846Z,53.44
2022-09-10T10:19:59.690Z,53.78
2022-09-10T10:22:30.191Z,53.55
2022-09-10T10:24:57.905Z,53.62
2022-09-10T10:27:32.828Z,53.61
2022-09-10T10:30:02.581Z,53.57
2022-09-10T10:32:39.482Z,53.88
2022-09-10T10:35:19.099Z,53.72
2022-09-10T10:37:52.317Z,53.60
2022-09-10T10:40:23.156Z,53.81
2022-09-10T10:42:52.028Z,53.89
2022-09-10T10:45:31.190Z,53.68
2022-09-10T10:48:04.310Z,53.80
2022-09-10T10:50:35.212Z,53.63
2022-09-10T10:53:18.529Z,53.81
2022-09-10T10:55:50.352Z,53.58
2022-09-10T10:58:28.934Z,53.86
2022-09-10T11:00:58.426Z,53.51
2022-09-10T11:03:27.329Z,53.55
2022-09-10T11:05:57.117Z,53.84
2022-09-10T11:08:28.236Z,53.58
2022-09-10T11:10:58.687Z,53.74
2022-09-10T11:13:27.347Z,53.45
2022-09-10T11:15:59.376Z,53.49
2022-09-10T11:18:29.333Z,53.54
2022-09-10T11:21:00.162Z,53.53
2022-09-10T11:23:31.187Z,53.63
2022-09-10T11:26:02.419Z,53.69
2022-09-10T11:28:31.647Z,53.54
2022-09-10T11:31:01.986Z,53.31
2022-09-10T11:33:32.267Z,53.35
2022-09-10T11:36:03.775Z,53.58
2022-09-10T11:38:36.872Z,53.19
2022-09-10T11:41:10.400Z,53.66
2022-09-10T11:43:41.253Z,53.67
2022-09-10T11:46:10.951Z,53.51
2022-09-10T11:48:40.944Z,53.64
2022-09-10T11:51:09.090Z,53.85
2022-09-10T11:53:38.086Z,53.48
2022-09-10T11:56:30.796Z,53.52
2022-09-10T11:59:09.221Z,53.88
2022-09-10T12:01:49.156Z,53.87
2022-09-10T12:04:31.031Z,53.62
2022-09-10T12:07:02.646Z,53.68
2022-09-10T12:09:34.749Z,53.92
2022-09-10T12:12:04.982Z,53.97
2022-09-10T12:14:32.656Z,53.68
2022-09-10T12:17:02.569Z,54.07
2022-09-10T12:19:31.447Z,53.83
2022-09-10T12:21:59.860Z,53.84
2022-09-10T12:24:31.958Z,53.94
2022-09-10T12:27:00.265Z,53.89
2022-09-10T12:29:30.548Z,53.77
2022-09-10T12:32:26.877Z,53.72
2022-09-10T12:35:27.768Z,53.91
2022-09-10T12:38:28.603Z,54.03
2022-09-10T12:40:57.635Z,54.23
2022-09-10T12:43:54.376Z,54.19
2022-09-10T12:46:25.670Z,53.94
2022-09-10T12:49:06.681Z,54.04
2022-09-10T12:51:38.431Z,54.05
2022-09-10T12:54:22.438Z,54.01
2022-09-10T12:57:12.762Z,54.20
2022-09-10T12:59:57.140Z,54.15
2022-09-10T13:02:29.890Z,54.13
2022-09-10T13:04:59.144Z,54.13
2022-09-10T13:07:28.963Z,53.84
2022-09-10T13:10:01.412Z,53.70
2022-09-10T13:12:32.748Z,53.94
2022-09-10T13:15:01.874Z,53.89
2022-09-10T13:17:41.157Z,54.06
2022-09-10T13:20:16.531Z,54.10
2022-09-10T13:23:04.223Z,53.95
2022-09-10T13:25:42.798Z,54.08
2022-09-10T13:28:47.803Z,53.75
2022-09-10T13:31:21.788Z,53.99
2022-09-10T13:34:01.859Z,54.04
2022-09-10T13:36:29.789Z,54.09
2022-09-10T13:39:25.003Z,53.87
2022-09-10T13:42:05.867Z,53.84
2022-09-10T13:44:47.617Z,53.86
2022-09-10T13:47:17.953Z,54.08
2022-09-10T13:49:50.462Z,54.32
2022-09-10T13:52:19.100Z,54.02
2022-09-10T13:54:48.011Z,53.93
2022-09-10T13:57:22.392Z,54.23
2022-09-10T13:59:51.276Z,54.03
2022-09-10T14:02:21.504Z,53.98
2022-09-10T14:04:49.465Z,54.30
2022-09-10T14:07:20.312Z,54.24
2022-09-10T14:09:49.026Z,54.19
2022-09-10T14:12:16.762Z,54.03
2022-09-10T14:14:45.527Z,54.13
2022-09-10T14:17:14.454Z,54.18
2022-09-10T14:19:47.738Z,54.05
2022-09-10T14:22:17.172Z,54.38
2022-09-10T14:24:49.726Z,54.08
2022-09-10T14:27:18.521Z,54.15
2022-09-10T14:29:46.830Z,54.50
2022-09-10T14:32:31.691Z,54.44
2022-09-10T14:35:03.604Z,54.19
2022-09-10T14:37:38.084Z,54.11
2022-09-10T14:40:07.941Z,54.23
2022-09-10T14:42:36.115Z,54.33
2022-09-10T14:45:04.010Z,54.47
2022-09-10T14:47:35.024Z,54.55
2022-09-10T14:50:28.283Z,54.17
2022-09-10T14:52:56.027Z,54.23
2022-09-10T14:55:25.258Z,54.53
2022-09-10T14:57:53.189Z,54.18
2022-09-10T15:00:20.993Z,54.29
2022-09-10T15:02:50.545Z,54.20
2022-09-10T15:05:18.453Z,54.47
2022-09-10T15:07:48.288Z,54.23
2022-09-10T15:10:17.107Z,54.20
2022-09-10T15:12:46.970Z,54.20
2022-09-10T15:15:17.434Z,54.36
2022-09-10T15:17:45.354Z,54.14
2022-09-10T15:20:14.445Z,54.16
2022-09-10T15:22:42.091Z,54.07
2022-09-10T15:25:18.602Z,54.33
2022-09-10T15:27:46.283Z,54.07
2022-09-10T15:30:14.088Z,54.11
2022-09-10T15:32:41.760Z,54.10
2022-09-10T15:35:09.805Z,54.00
2022-09-10T15:37:37.732Z,54.03
2022-09-10T15:40:06.050Z,54.15
2022-09-10T15:42:35.105Z,54.27
2022-09-10T15:45:02.787Z,53.87
2022-09-10T15:47:33.434Z,54.27
2022-09-10T15:50:01.158Z,54.23
2022-09-10T15:52:28.838Z,54.21
2022-09-10T15:54:56.634Z,53.96
2022-09-10T15:57:24.315Z,54.29
2022-09-10T15:59:53.491Z,54.06
2022-09-10T16:02:21.202Z,54.04
2022-09-10T16:04:49.147Z,53.77
2022-09-10T16:07:16.804Z,54.07
2022-09-10T16:12:06.575Z,53.97
2022-09-10T16:14:34.504Z,53.97
2022-09-10T16:17:10.277Z,54.11
2022-09-10T16:19:38.040Z,54.26
2022-09-10T16:22:05.802Z,54.32
2022-09-10T16:24:33.474Z,54.20
2022-09-10T16:27:01.206Z,54.34
2022-09-10T16:29:29.465Z,54.24
2022-09-10T16:31:57.385Z,54.35
2022-09-10T16:34:26.383Z,54.28
2022-09-10T16:36:54.079Z,54.32
2022-09-10T16:39:22.143Z,54.25
2022-09-10T16:41:50.791Z,54.40
2022-09-10T16:44:19.160Z,54.32
2022-09-10T16:46:47.437Z,54.11
2022-09-10T16:49:15.230Z,54.25
2022-09-10T16:51:44.931Z,54.29
2022-09-10T16:54:13.854Z,54.26
2022-09-10T16:56:42.397Z,54.33
2022-09-10T16:59:14.868Z,54.29
2022-09-10T17:01:43.819Z,54.06
2022-09-10T17:04:18.551Z,54.39
2022-09-10T17:06:48.402Z,54.44
2022-09-10T17:09:16.285Z,54.53
2022-09-10T17:11:43.960Z,54.41
2022-09-10T17:14:12.416Z,54.47
2022-09-10T17:16:40.877Z,54.11
2022-09-10T17:19:10.913Z,54.56
2022-09-10T17:21:38.691Z,54.57
2022-09-10T17:24:09.124Z,54.57
2022-09-10T17:26:37.281Z,54.35
2022-09-10T17:29:06.225Z,54.49
2022-09-10T17:31:33.983Z,54.74
2022-09-10T17:34:01.922Z,54.46
2022-09-10T17:36:30.628Z,54.60
2022-09-10T17:38:59.188Z,54.45
2022-09-10T17:41:28.588Z,54.59
2022-09-10T17:43:56.595Z,54.39
2022-09-10T17:46:24.378Z,54.51
2022-09-10T17:48:52.633Z,54.61
2022-09-10T17:51:22.794Z,54.50
2022-09-10T17:53:50.564Z,54.68
2022-09-10T17:56:19.924Z,54.61
2022-09-10T17:58:49.045Z,54.71
2022-09-10T18:01:23.134Z,54.91
2022-09-10T18:03:51.388Z,54.70
2022-09-10T18:06:19.084Z,54.81
2022-09-10T18:08:46.752Z,54.74
2022-09-10T18:11:16.376Z,54.86
2022-09-10T18:13:44.812Z,54.64
2022-09-10T18:16:16.162Z,54.82
2022-09-10T18:18:45.561Z,54.94
2022-09-10T18:21:14.646Z,54.91
2022-09-10T18:23:44.304Z,54.75
2022-09-10T18:26:13.728Z,54.94
2022-09-10T18:28:41.474Z,55.00
2022-09-10T18:31:09.731Z,55.10
2022-09-10T18:33:39.283Z,54.75
2022-09-10T18:36:14.332Z,55.19
2022-09-10T18:38:42.084Z,54.95
2022-09-10T18:41:18.206Z,55.10
2022-09-10T18:43:46.061Z,55.26
2022-09-10T18:46:13.828Z,54.86
2022-09-10T18:48:43.825Z,55.19
2022-09-10T18:51:12.919Z,54.98
2022-09-10T18:53:40.825Z,55.24
2022-09-10T18:56:09.976Z,55.25
2022-09-10T18:58:37.746Z,55.39
2022-09-10T19:01:06.588Z,55.04
2022-09-10T19:03:38.593Z,55.40
2022-09-10T19:06:09.201Z,54.96
2022-09-10T19:08:37.306Z,55.20
2022-09-10T19:11:05.388Z,55.15
2022-09-10T19:13:33.518Z,55.14
2022-09-10T19:16:01.902Z,55.26
2022-09-10T19:18:30.069Z,54.94
2022-09-10T19:20:57.847Z,54.97
2022-09-10T19:23:26.908Z,55.24
2022-09-10T19:25:54.839Z,54.95
2022-09-10T19:28:22.500Z,55.26
2022-09-10T19:30:51.967Z,55.00
2022-09-10T19:33:20.951Z,55.33
2022-09-10T19:35:50.163Z,55.27
2022-09-10T19:38:36.531Z,55.20
2022-09-10T19:41:07.202Z,55.16
2022-09-10T19:43:36.257Z,55.25
2022-09-10T19:46:04.164Z,55.43
2022-09-10T19:48:32.017Z,55.28
2022-09-10T19:51:01.136Z,55.47
2022-09-10T19:53:30.452Z,55.28
2022-09-10T19:56:03.830Z,55.26
2022-09-10T19:58:32.902Z,55.41
2022-09-10T20:01:00.732Z,55.47
2022-09-10T20:03:28.399Z,55.52
2022-09-10T20:05:56.095Z,55.42
2022-09-10T20:08:24.156Z,55.30
2022-09-10T20:10:52.481Z,55.46
2022-09-10T20:13:20.577Z,55.26
2022-09-10T20:15:50.158Z,55.44
2022-09-10T20:18:17.958Z,55.40
2022-09-10T20:20:46.709Z,55.20
2022-09-10T20:23:14.609Z,55.49
2022-09-10T20:25:43.255Z,55.53
2022-09-10T20:28:12.897Z,55.34
2022-09-10T20:30:40.895Z,55.29
2022-09-10T20:33:09.921Z,55.23
2022-09-10T20:35:37.610Z,55.21
2022-09-10T20:38:05.268Z,55.34
2022-09-10T20:40:32.956Z,55.28
2022-09-10T20:43:00.618Z,55.35
2022-09-10T20:45:28.334Z,55.26
2022-09-10T20:47:56.071Z,55.43
2022-09-10T20:50:25.503Z,55.15
2022-09-10T20:52:53.171Z,55.29
2022-09-10T20:55:20.868Z,55.26
2022-09-10T20:57:48.760Z,55.58
2022-09-10T21:00:16.824Z,55.38
2022-09-10T21:02:44.925Z,55.48
2022-09-10T21:05:13.882Z,55.23
2022-09-10T21:07:42.880Z,55.25
2022-09-10T21:10:11.014Z,55.43
2022-09-10T21:12:38.679Z,55.53
2022-09-10T21:15:07.137Z,55.64
2022-09-10T21:17:35.460Z,55.48
2022-09-10T21:20:04.107Z,55.63
2022-09-10T21:22:31.880Z,55.33
2022-09-10T21:25:00.906Z,55.33
2022-09-10T21:27:29.175Z,55.49
2022-09-10T21:29:56.851Z,55.20
2022-09-10T21:32:24.529Z,55.37
2022-09-10T21:34:52.233Z,55.56
2022-09-10T21:37:19.884Z,55.52
2022-09-10T21:39:47.652Z,55.32
2022-09-10T21:42:16.718Z,55.45
2022-09-10T21:44:44.403Z,55.51
2022-09-10T21:47:12.100Z,55.65
2022-09-10T21:49:39.821Z,55.52
2022-09-10T21:52:08.362Z,55.57
2022-09-10T21:54:36.563Z,55.50
2022-09-10T21:57:05.887Z,55.39
2022-09-10T21:59:34.929Z,55.67
2022-09-10T22:02:04.292Z,55.62
2022-09-10T22:04:32.063Z,55.53
2022-09-10T22:06:59.717Z,55.33
2022-09-10T22:09:27.407Z,55.48
2022-09-10T22:11:59.205Z,55.40
2022-09-10T22:14:26.891Z,55.46
2022-09-10T22:16:55.916Z,55.53
2022-09-10T22:19:24.304Z,55.61
2022-09-10T22:21:53.962Z,55.81
2022-09-10T22:24:22.245Z,55.53
2022-09-10T22:26:49.977Z,55.62
2022-09-10T22:29:18.499Z,55.58
2022-09-10T22:31:46.347Z,55.67
2022-09-10T22:34:15.955Z,55.39
2022-09-10T22:36:44.469Z,55.41
2022-09-10T22:39:12.860Z,55.52
2022-09-10T22:41:40.782Z,55.68
2022-09-10T22:44:08.467Z,55.60
2022-09-10T22:46:36.309Z,55.47
2022-09-10T22:49:04.223Z,55.25
2022-09-10T22:51:35.230Z,55.63
2022-09-10T22:54:03.368Z,55.34
2022-09-10T22:56:31.078Z,55.59
2022-09-10T22:58:59.528Z,55.40
2022-09-10T23:01:28.677Z,55.33
2022-09-10T23:03:57.381Z,55.66
2022-09-10T23:06:25.390Z,55.41
2022-09-10T23:08:56.189Z,55.40
2022-09-10T23:11:24.766Z,55.59
2022-09-10T23:13:53.508Z,55.43
2022-09-10T23:16:22.461Z,55.42
2022-09-10T23:18:51.595Z,55.39
2022-09-10T23:21:19.367Z,55.66
2022-09-10T23:23:47.703Z,55.38
2022-09-10T23:26:17.274Z,55.52
2022-09-10T23:28:45.062Z,55.42
2022-09-10T23:31:14.318Z,55.67
2022-09-10T23:33:42.566Z,55.44
2022-09-10T23:36:11.671Z,55.61
2022-09-10T23:38:39.810Z,55.53
2022-09-10T23:41:08.634Z,55.59
2022-09-10T23:43:37.641Z,55.47
2022-09-10T23:46:05.446Z,55.50
2022-09-10T23:48:33.152Z,55.55
2022-09-10T23:51:01.436Z,55.41
2022-09-10T23:53:29.232Z,55.49
2022-09-10T23:55:56.962Z,55.61
2022-09-10T23:58:24.622Z,55.50
